createdAt,value
2018-01-03T00:00:57.669Z,3.80
2018-01-03T00:01:57.686Z,5.40
2018-01-03T00:02:57.703Z,3.60
2018-01-03T00:03:57.720Z,3.50
2018-01-03T00:04:57.738Z,4.10
2018-01-03T00:05:57.754Z,5.40
2018-01-03T00:06:57.772Z,4.20
2018-01-03T00:07:57.789Z,4.20
2018-01-03T00:08:57.808Z,7.00
2018-01-03T00:09:57.827Z,5.80
2018-01-03T00:10:57.842Z,3.60
2018-01-03T00:11:57.859Z,5.50
2018-01-03T00:12:57.876Z,6.10
2018-01-03T00:13:57.895Z,6.60
2018-01-03T00:14:57.912Z,3.70
2018-01-03T00:15:57.929Z,6.00
2018-01-03T00:16:57.947Z,4.30
2018-01-03T00:17:57.963Z,5.60
2018-01-03T00:18:57.982Z,5.90
2018-01-03T00:19:57.999Z,4.40
2018-01-03T00:20:58.015Z,3.90
2018-01-03T00:21:58.038Z,3.30
2018-01-03T00:22:58.051Z,6.20
2018-01-03T00:23:58.069Z,4.50
2018-01-03T00:24:58.087Z,4.70
2018-01-03T00:25:58.104Z,4.10
2018-01-03T00:26:58.121Z,3.20
2018-01-03T00:27:58.138Z,6.60
2018-01-03T00:28:58.154Z,5.10
2018-01-03T00:29:58.173Z,4.20
2018-01-03T00:30:58.192Z,5.20
2018-01-03T00:31:58.208Z,3.70
2018-01-03T00:32:58.225Z,5.50
2018-01-03T00:33:58.242Z,6.30
2018-01-03T00:34:58.261Z,6.90
2018-01-03T00:35:58.277Z,5.80
2018-01-03T00:36:58.296Z,5.70
2018-01-03T00:37:58.313Z,6.60
2018-01-03T00:38:58.332Z,5.60
2018-01-03T00:39:58.348Z,5.50
2018-01-03T00:40:58.365Z,7.60
2018-01-03T00:41:58.383Z,6.20
2018-01-03T00:42:58.402Z,6.50
2018-01-03T00:43:58.418Z,5.70
2018-01-03T00:44:58.439Z,6.30
2018-01-03T00:45:58.453Z,4.60
2018-01-03T00:46:58.471Z,8.70
2018-01-03T00:47:58.487Z,7.90
2018-01-03T00:48:58.509Z,3.60
2018-01-03T00:49:58.523Z,3.80
2018-01-03T00:50:58.547Z,3.80
2018-01-03T00:51:58.557Z,4.50
2018-01-03T00:52:58.576Z,4.50
2018-01-03T00:53:58.594Z,6.30
2018-01-03T00:54:58.613Z,5.40
2018-01-03T00:55:58.627Z,5.40
2018-01-03T00:56:58.647Z,6.70
2018-01-03T00:57:58.665Z,5.40
2018-01-03T00:58:58.682Z,5.20
2018-01-03T00:59:58.699Z,5.20
2018-01-03T01:00:58.717Z,4.60
2018-01-03T01:01:58.734Z,4.20
2018-01-03T01:02:58.753Z,6.10
2018-01-03T01:03:58.769Z,4.80
2018-01-03T01:04:58.786Z,4.90
2018-01-03T01:05:58.806Z,6.10
2018-01-03T01:06:58.823Z,5.30
2018-01-03T01:07:58.839Z,5.30
2018-01-03T01:08:58.858Z,5.90
2018-01-03T01:09:58.874Z,4.90
2018-01-03T01:10:58.893Z,4.70
2018-01-03T01:11:58.910Z,5.20
2018-01-03T01:12:58.928Z,3.90
2018-01-03T01:13:58.946Z,4.20
2018-01-03T01:14:58.965Z,5.30
2018-01-03T01:15:58.981Z,5.00
2018-01-03T01:16:58.999Z,6.30
2018-01-03T01:17:59.017Z,4.30
2018-01-03T01:18:59.036Z,5.50
2018-01-03T01:19:59.052Z,5.00
2018-01-03T01:20:59.070Z,5.40
2018-01-03T01:21:59.087Z,8.80
2018-01-03T01:22:59.106Z,6.10
2018-01-03T01:23:59.123Z,6.20
2018-01-03T01:24:59.140Z,5.90
2018-01-03T01:25:59.159Z,7.60
2018-01-03T01:26:59.178Z,7.50
2018-01-03T01:27:59.194Z,6.30
2018-01-03T01:28:59.212Z,7.50
2018-01-03T01:29:59.230Z,8.80
2018-01-03T01:30:59.248Z,6.20
2018-01-03T01:31:59.305Z,6.90
2018-01-03T01:32:59.283Z,8.10
2018-01-03T01:33:59.302Z,9.00
2018-01-03T01:34:59.319Z,8.10
2018-01-03T01:35:59.337Z,5.60
2018-01-03T01:36:59.354Z,5.20
2018-01-03T01:37:59.373Z,6.10
2018-01-03T01:38:59.436Z,6.70
2018-01-03T01:39:59.406Z,7.30
2018-01-03T01:40:59.426Z,7.50
2018-01-03T01:41:59.444Z,6.50
2018-01-03T01:42:59.460Z,6.00
2018-01-03T01:43:59.478Z,5.70
2018-01-03T01:44:59.501Z,3.80
2018-01-03T01:45:59.515Z,4.50
2018-01-03T01:46:59.532Z,4.30
2018-01-03T01:47:59.549Z,5.00
2018-01-03T01:48:59.568Z,5.60
2018-01-03T01:49:59.585Z,4.50
2018-01-03T01:50:59.604Z,6.30
2018-01-03T01:51:59.621Z,5.20
2018-01-03T01:52:59.639Z,3.40
2018-01-03T01:53:59.656Z,4.70
2018-01-03T01:54:59.675Z,4.00
2018-01-03T01:55:59.693Z,4.30
2018-01-03T01:56:59.711Z,3.60
2018-01-03T01:57:59.728Z,4.20
2018-01-03T01:58:59.747Z,3.40
2018-01-03T01:59:59.764Z,3.60
2018-01-03T02:00:59.783Z,4.90
2018-01-03T02:01:59.801Z,5.20
2018-01-03T02:02:59.817Z,4.00
2018-01-03T02:03:59.836Z,4.50
2018-01-03T02:04:59.854Z,3.50
2018-01-03T02:05:59.871Z,7.20
2018-01-03T02:06:59.889Z,5.20
2018-01-03T02:07:59.935Z,5.20
2018-01-03T02:08:59.924Z,4.30
2018-01-03T02:09:59.942Z,5.90
2018-01-03T02:10:59.961Z,4.80
2018-01-03T02:11:59.978Z,5.10
2018-01-03T02:12:59.996Z,6.40
2018-01-03T02:14:00.016Z,5.10
2018-01-03T02:15:00.053Z,4.90
2018-01-03T02:16:00.051Z,4.50
2018-01-03T02:17:00.068Z,5.90
2018-01-03T02:18:00.087Z,4.40
2018-01-03T02:19:00.106Z,5.10
2018-01-03T02:20:00.122Z,4.00
2018-01-03T02:21:00.139Z,8.40
2018-01-03T02:22:00.158Z,5.50
2018-01-03T02:23:00.177Z,11.20
2018-01-03T02:24:00.197Z,5.30
2018-01-03T02:25:00.211Z,5.50
2018-01-03T02:26:00.229Z,5.00
2018-01-03T02:27:00.248Z,5.60
2018-01-03T02:28:00.265Z,6.50
2018-01-03T02:29:00.282Z,4.60
2018-01-03T02:30:00.300Z,7.00
2018-01-03T02:31:00.320Z,4.50
2018-01-03T02:32:00.335Z,5.10
2018-01-03T02:33:00.355Z,5.00
2018-01-03T02:34:00.372Z,4.50
2018-01-03T02:35:00.391Z,6.20
2018-01-03T02:36:00.410Z,4.00
2018-01-03T02:37:00.426Z,4.50
2018-01-03T02:38:00.451Z,3.40
2018-01-03T02:39:00.464Z,3.40
2018-01-03T02:40:00.480Z,2.80
2018-01-03T02:41:00.498Z,4.00
2018-01-03T02:42:00.516Z,2.70
2018-01-03T02:43:00.534Z,5.00
2018-01-03T02:44:00.551Z,4.20
2018-01-03T02:45:00.570Z,3.60
2018-01-03T02:46:00.587Z,3.70
2018-01-03T02:47:00.605Z,4.30
2018-01-03T02:48:00.622Z,3.90
2018-01-03T02:49:00.641Z,3.40
2018-01-03T02:50:00.659Z,4.20
2018-01-03T02:51:00.677Z,5.30
2018-01-03T02:52:00.695Z,5.70
2018-01-03T02:53:00.711Z,3.90
2018-01-03T02:54:00.729Z,4.50
2018-01-03T02:55:00.749Z,4.40
2018-01-03T02:56:00.764Z,4.80
2018-01-03T02:57:00.784Z,3.40
2018-01-03T02:58:00.803Z,3.60
2018-01-03T02:59:00.819Z,4.70
2018-01-03T03:00:00.883Z,4.70
2018-01-03T03:01:00.855Z,4.60
2018-01-03T03:02:00.872Z,4.40
2018-01-03T03:03:00.890Z,2.90
2018-01-03T03:04:00.907Z,5.10
2018-01-03T03:05:00.926Z,6.10
2018-01-03T03:06:00.944Z,3.60
2018-01-03T03:07:00.961Z,4.70
2018-01-03T03:08:00.979Z,4.30
2018-01-03T03:09:00.998Z,5.70
2018-01-03T03:10:01.015Z,5.40
2018-01-03T03:11:01.033Z,3.60
2018-01-03T03:12:01.051Z,3.70
2018-01-03T03:13:01.069Z,3.70
2018-01-03T03:14:01.088Z,2.80
2018-01-03T03:15:01.104Z,3.10
2018-01-03T03:16:01.122Z,5.40
2018-01-03T03:17:01.141Z,4.30
2018-01-03T03:18:01.158Z,3.50
2018-01-03T03:19:01.175Z,3.80
2018-01-03T03:20:01.196Z,3.90
2018-01-03T03:21:01.212Z,2.50
2018-01-03T03:22:01.233Z,3.80
2018-01-03T03:23:01.247Z,3.40
2018-01-03T03:24:01.264Z,2.30
2018-01-03T03:25:01.282Z,1.50
2018-01-03T03:26:01.300Z,2.20
2018-01-03T03:27:01.319Z,2.30
2018-01-03T03:28:01.337Z,3.70
2018-01-03T03:29:01.355Z,2.70
2018-01-03T03:30:01.374Z,4.00
2018-01-03T03:31:01.391Z,3.80
2018-01-03T03:32:01.409Z,2.70
2018-01-03T03:33:01.426Z,2.90
2018-01-03T03:34:01.444Z,2.60
2018-01-03T03:35:01.464Z,2.90
2018-01-03T03:36:01.481Z,3.90
2018-01-03T03:37:01.499Z,3.90
2018-01-03T03:38:01.517Z,5.50
2018-01-03T03:39:01.535Z,3.50
2018-01-03T03:40:01.553Z,3.60
2018-01-03T03:41:01.570Z,2.80
2018-01-03T03:42:01.589Z,4.30
2018-01-03T03:43:01.610Z,4.10
2018-01-03T03:44:01.623Z,2.90
2018-01-03T03:45:01.643Z,2.10
2018-01-03T03:46:01.661Z,2.70
2018-01-03T03:47:01.680Z,2.10
2018-01-03T03:48:01.697Z,2.20
2018-01-03T03:49:01.715Z,2.10
2018-01-03T03:50:01.736Z,2.90
2018-01-03T03:51:01.751Z,1.80
2018-01-03T03:52:01.770Z,2.90
2018-01-03T03:53:01.788Z,1.60
2018-01-03T03:54:01.806Z,1.40
2018-01-03T03:55:01.825Z,1.60
2018-01-03T03:56:01.843Z,1.70
2018-01-03T03:57:01.859Z,1.80
2018-01-03T03:58:01.880Z,2.30
2018-01-03T03:59:01.898Z,2.00
2018-01-03T04:00:01.914Z,1.50
2018-01-03T04:01:01.934Z,2.20
2018-01-03T04:02:01.951Z,2.60
2018-01-03T04:03:01.970Z,2.50
2018-01-03T04:04:01.987Z,1.50
2018-01-03T04:05:02.007Z,3.70
2018-01-03T04:06:02.025Z,2.50
2018-01-03T04:07:02.046Z,2.40
2018-01-03T04:08:02.061Z,2.10
2018-01-03T04:09:02.079Z,1.40
2018-01-03T04:10:02.098Z,2.90
2018-01-03T04:11:02.116Z,1.20
2018-01-03T04:12:02.133Z,1.90
2018-01-03T04:13:02.152Z,2.20
2018-01-03T04:14:02.171Z,1.40
2018-01-03T04:15:02.191Z,3.20
2018-01-03T04:16:02.209Z,2.90
2018-01-03T04:17:02.226Z,1.60
2018-01-03T04:18:02.245Z,3.40
2018-01-03T04:19:02.262Z,5.20
2018-01-03T04:20:02.280Z,2.20
2018-01-03T04:21:02.298Z,4.20
2018-01-03T04:22:02.317Z,3.40
2018-01-03T04:23:02.336Z,2.60
2018-01-03T04:24:02.353Z,1.70
2018-01-03T04:25:02.373Z,3.00
2018-01-03T04:26:02.391Z,4.70
2018-01-03T04:27:02.410Z,2.80
2018-01-03T04:28:02.426Z,3.00
2018-01-03T04:29:02.446Z,2.80
2018-01-03T04:30:02.463Z,3.70
2018-01-03T04:31:02.482Z,2.70
2018-01-03T04:32:02.499Z,3.00
2018-01-03T04:33:02.519Z,3.60
2018-01-03T04:34:02.537Z,2.70
2018-01-03T04:35:02.556Z,3.00
2018-01-03T04:36:02.573Z,2.40
2018-01-03T04:37:02.590Z,1.90
2018-01-03T04:38:02.609Z,2.70
2018-01-03T04:39:02.627Z,2.60
2018-01-03T04:40:02.646Z,1.80
2018-01-03T04:41:02.663Z,2.30
2018-01-03T04:42:02.681Z,2.30
2018-01-03T04:43:02.701Z,1.50
2018-01-03T04:44:02.719Z,1.60
2018-01-03T04:45:02.736Z,1.60
2018-01-03T04:46:02.756Z,1.60
2018-01-03T04:47:02.774Z,2.40
2018-01-03T04:48:02.792Z,2.90
2018-01-03T04:49:02.810Z,2.20
2018-01-03T04:50:02.829Z,1.70
2018-01-03T04:51:02.847Z,2.00
2018-01-03T04:52:02.864Z,2.90
2018-01-03T04:53:02.882Z,4.70
2018-01-03T04:54:02.901Z,1.60
2018-01-03T04:55:02.920Z,3.20
2018-01-03T04:56:02.937Z,4.10
2018-01-03T04:57:02.957Z,3.00
2018-01-03T04:58:02.974Z,1.90
2018-01-03T04:59:02.994Z,2.30
2018-01-03T05:00:03.011Z,2.80
2018-01-03T05:01:03.030Z,4.40
2018-01-03T05:02:03.048Z,3.90
2018-01-03T05:03:03.121Z,2.30
2018-01-03T05:04:03.085Z,3.60
2018-01-03T05:05:03.104Z,3.20
2018-01-03T05:06:03.124Z,3.30
2018-01-03T05:07:03.141Z,3.00
2018-01-03T05:08:03.158Z,2.30
2018-01-03T05:09:03.178Z,4.10
2018-01-03T05:10:03.198Z,3.10
2018-01-03T05:11:03.215Z,2.20
2018-01-03T05:12:03.234Z,2.80
2018-01-03T05:13:03.254Z,1.70
2018-01-03T05:14:03.270Z,3.80
2018-01-03T05:15:03.292Z,7.60
2018-01-03T05:16:03.308Z,5.10
2018-01-03T05:17:03.327Z,4.30
2018-01-03T05:18:03.344Z,2.90
2018-01-03T05:19:03.364Z,5.70
2018-01-03T05:20:03.383Z,2.70
2018-01-03T05:21:03.400Z,3.10
2018-01-03T05:22:03.420Z,3.30
2018-01-03T05:23:03.438Z,4.60
2018-01-03T05:24:03.456Z,4.30
2018-01-03T05:25:03.478Z,4.00
2018-01-03T05:26:03.493Z,3.30
2018-01-03T05:27:03.514Z,3.80
2018-01-03T05:28:03.532Z,3.20
2018-01-03T05:29:03.549Z,5.60
2018-01-03T05:30:03.568Z,4.20
2018-01-03T05:31:03.587Z,2.90
2018-01-03T05:32:03.606Z,3.20
2018-01-03T05:33:03.624Z,4.10
2018-01-03T05:34:03.650Z,7.90
2018-01-03T05:35:03.661Z,4.70
2018-01-03T05:36:03.780Z,5.60
2018-01-03T05:37:03.700Z,4.00
2018-01-03T05:38:03.719Z,7.60
2018-01-03T05:39:03.736Z,3.00
2018-01-03T05:40:03.755Z,7.60
2018-01-03T05:41:03.774Z,4.50
2018-01-03T05:42:03.795Z,8.30
2018-01-03T05:43:03.812Z,3.00
2018-01-03T05:44:03.830Z,7.80
2018-01-03T05:45:03.849Z,5.90
2018-01-03T05:46:03.869Z,6.00
2018-01-03T05:47:03.886Z,6.00
2018-01-03T05:48:03.905Z,6.00
2018-01-03T05:49:03.924Z,7.60
2018-01-03T05:50:03.945Z,7.80
2018-01-03T05:51:03.962Z,5.70
2018-01-03T05:52:03.979Z,3.90
2018-01-03T05:53:03.999Z,4.80
2018-01-03T05:54:04.018Z,7.30
2018-01-03T05:55:04.037Z,7.90
2018-01-03T05:56:04.055Z,6.90
2018-01-03T05:57:04.074Z,8.50
2018-01-03T05:58:04.092Z,6.40
2018-01-03T05:59:04.115Z,7.10
2018-01-03T06:00:04.128Z,12.40
2018-01-03T06:01:04.148Z,8.20
2018-01-03T06:02:04.168Z,7.70
2018-01-03T06:03:04.186Z,6.40
2018-01-03T06:04:04.203Z,6.40
2018-01-03T06:05:04.474Z,7.50
2018-01-03T06:06:04.241Z,7.40
2018-01-03T06:07:04.261Z,12.00
2018-01-03T06:08:04.429Z,8.60
2018-01-03T06:09:04.297Z,9.70
2018-01-03T06:10:04.317Z,9.40
2018-01-03T06:11:04.335Z,8.50
2018-01-03T06:12:04.354Z,10.60
2018-01-03T06:13:04.372Z,9.90
2018-01-03T06:14:04.391Z,11.90
2018-01-03T06:15:04.410Z,8.00
2018-01-03T06:16:04.428Z,8.50
2018-01-03T06:17:04.448Z,7.70
2018-01-03T06:18:04.466Z,13.60
2018-01-03T06:19:04.486Z,11.10
2018-01-03T06:20:04.504Z,8.40
2018-01-03T06:21:04.521Z,10.50
2018-01-03T06:22:04.540Z,11.00
2018-01-03T06:23:04.559Z,11.50
2018-01-03T06:24:04.578Z,14.00
2018-01-03T06:25:04.597Z,12.20
2018-01-03T06:26:04.615Z,12.00
2018-01-03T06:27:04.634Z,11.80
2018-01-03T06:28:04.653Z,12.80
2018-01-03T06:29:04.672Z,10.30
2018-01-03T06:30:04.689Z,14.60
2018-01-03T06:31:04.709Z,13.60
2018-01-03T06:32:04.726Z,9.60
2018-01-03T06:33:04.845Z,11.40
2018-01-03T06:34:04.764Z,14.50
2018-01-03T06:35:04.784Z,11.00
2018-01-03T06:36:04.802Z,13.00
2018-01-03T06:37:04.822Z,11.90
2018-01-03T06:38:04.839Z,14.00
2018-01-03T06:39:04.859Z,13.40
2018-01-03T06:40:04.876Z,9.70
2018-01-03T06:41:04.901Z,12.30
2018-01-03T06:42:04.913Z,15.60
2018-01-03T06:43:04.933Z,17.30
2018-01-03T06:44:04.956Z,10.30
2018-01-03T06:45:04.970Z,13.00
2018-01-03T06:46:04.989Z,15.00
2018-01-03T06:47:05.007Z,12.60
2018-01-03T06:48:05.025Z,11.60
2018-01-03T06:49:05.044Z,16.70
2018-01-03T06:50:05.062Z,14.00
2018-01-03T06:51:05.082Z,9.20
2018-01-03T06:52:05.099Z,14.60
2018-01-03T06:53:05.119Z,14.40
2018-01-03T06:54:05.136Z,15.70
2018-01-03T06:55:05.155Z,14.60
2018-01-03T06:56:05.174Z,14.00
2018-01-03T06:57:05.192Z,12.50
2018-01-03T06:58:05.212Z,10.00
2018-01-03T06:59:05.230Z,13.50
2018-01-03T07:00:05.274Z,17.50
2018-01-03T07:01:05.266Z,11.00
2018-01-03T07:02:05.285Z,9.90
2018-01-03T07:03:05.304Z,12.00
2018-01-03T07:04:05.321Z,12.00
2018-01-03T07:05:05.340Z,12.40
2018-01-03T07:06:05.358Z,11.50
2018-01-03T07:07:05.377Z,13.80
2018-01-03T07:08:05.395Z,11.20
2018-01-03T07:09:05.414Z,11.20
2018-01-03T07:10:05.433Z,13.20
2018-01-03T07:11:05.453Z,10.50
2018-01-03T07:12:05.470Z,10.30
2018-01-03T07:13:05.488Z,16.90
2018-01-03T07:14:05.508Z,14.30
2018-01-03T07:15:05.525Z,9.80
2018-01-03T07:16:05.545Z,9.80
2018-01-03T07:17:05.563Z,16.00
2018-01-03T07:18:05.580Z,15.90
2018-01-03T07:19:05.599Z,16.60
2018-01-03T07:20:05.616Z,9.80
2018-01-03T07:21:05.636Z,13.90
2018-01-03T07:22:05.654Z,10.10
2018-01-03T07:23:05.674Z,13.30
2018-01-03T07:24:05.690Z,13.00
2018-01-03T07:25:05.710Z,14.00
2018-01-03T07:26:05.728Z,10.10
2018-01-03T07:27:05.747Z,23.70
2018-01-03T07:28:05.764Z,9.40
2018-01-03T07:29:05.783Z,14.00
2018-01-03T07:30:05.800Z,11.90
2018-01-03T07:31:05.823Z,13.90
2018-01-03T07:32:05.838Z,10.90
2018-01-03T07:33:05.855Z,11.60
2018-01-03T07:34:05.874Z,9.50
2018-01-03T07:35:05.894Z,13.70
2018-01-03T07:36:05.911Z,10.00
2018-01-03T07:37:05.929Z,12.60
2018-01-03T07:38:05.953Z,11.50
2018-01-03T07:39:05.966Z,9.90
2018-01-03T07:40:05.983Z,11.90
2018-01-03T07:41:06.003Z,10.80
2018-01-03T07:42:06.022Z,12.80
2018-01-03T07:43:06.040Z,12.90
2018-01-03T07:44:06.057Z,7.20
2018-01-03T07:45:06.076Z,8.90
2018-01-03T07:46:06.095Z,11.00
2018-01-03T07:47:06.112Z,8.70
2018-01-03T07:48:06.130Z,11.60
2018-01-03T07:49:06.150Z,9.00
2018-01-03T07:50:06.169Z,8.20
2018-01-03T07:51:06.194Z,8.90
2018-01-03T07:52:06.203Z,9.40
2018-01-03T07:53:06.222Z,8.70
2018-01-03T07:54:06.292Z,9.90
2018-01-03T07:55:06.259Z,11.20
2018-01-03T07:56:06.277Z,7.80
2018-01-03T07:57:06.296Z,8.60
2018-01-03T07:58:06.313Z,6.70
2018-01-03T07:59:06.331Z,10.10
2018-01-03T08:00:06.349Z,10.20
2018-01-03T08:01:06.367Z,10.90
2018-01-03T08:02:06.386Z,10.10
2018-01-03T08:03:06.403Z,10.50
2018-01-03T08:04:06.421Z,12.00
2018-01-03T08:05:06.439Z,10.00
2018-01-03T08:06:06.457Z,10.10
2018-01-03T08:07:06.474Z,11.10
2018-01-03T08:08:06.492Z,9.10
2018-01-03T08:09:06.509Z,10.60
2018-01-03T08:10:06.666Z,5.40
2018-01-03T08:11:06.545Z,6.50
2018-01-03T08:12:06.563Z,8.60
2018-01-03T08:13:06.581Z,10.50
2018-01-03T08:14:06.599Z,7.00
2018-01-03T08:15:06.616Z,6.80
2018-01-03T08:16:06.634Z,7.30
2018-01-03T08:17:06.651Z,7.40
2018-01-03T08:18:06.668Z,9.20
2018-01-03T08:19:06.687Z,6.70
2018-01-03T08:20:06.703Z,7.90
2018-01-03T08:21:06.721Z,5.50
2018-01-03T08:22:06.738Z,6.10
2018-01-03T08:23:06.792Z,4.40
2018-01-03T08:24:06.775Z,3.80
2018-01-03T08:25:06.791Z,3.00
2018-01-03T08:26:06.809Z,4.70
2018-01-03T08:27:06.825Z,6.10
2018-01-03T08:28:06.846Z,3.60
2018-01-03T08:29:06.861Z,3.20
2018-01-03T08:30:06.879Z,7.40
2018-01-03T08:31:06.896Z,5.90
2018-01-03T08:32:06.913Z,4.70
2018-01-03T08:33:06.931Z,5.60
2018-01-03T08:34:06.948Z,7.20
2018-01-03T08:35:06.969Z,6.60
2018-01-03T08:36:06.983Z,6.70
2018-01-03T08:37:07.001Z,5.90
2018-01-03T08:38:07.019Z,7.70
2018-01-03T08:39:07.038Z,4.50
2018-01-03T08:40:07.054Z,6.20
2018-01-03T08:41:07.072Z,6.80
2018-01-03T08:42:07.089Z,9.50
2018-01-03T08:43:07.106Z,7.10
2018-01-03T08:44:07.123Z,7.10
2018-01-03T08:45:07.142Z,5.90
2018-01-03T08:46:07.160Z,9.90
2018-01-03T08:47:07.178Z,7.90
2018-01-03T08:48:07.195Z,4.80
2018-01-03T08:49:07.213Z,5.70
2018-01-03T08:50:07.230Z,4.90
2018-01-03T08:51:07.250Z,6.50
2018-01-03T08:52:07.266Z,7.20
2018-01-03T08:53:07.284Z,7.60
2018-01-03T08:54:07.310Z,5.80
2018-01-03T08:55:07.318Z,8.00
2018-01-03T08:56:07.335Z,6.40
2018-01-03T08:57:07.354Z,8.10
2018-01-03T08:58:07.372Z,10.00
2018-01-03T08:59:07.390Z,8.10
2018-01-03T09:00:07.405Z,9.30
2018-01-03T09:01:07.425Z,5.90
2018-01-03T09:02:07.592Z,5.80
2018-01-03T09:03:07.460Z,6.90
2018-01-03T09:04:07.477Z,9.70
2018-01-03T09:05:07.495Z,8.60
2018-01-03T09:06:07.512Z,9.20
2018-01-03T09:07:07.545Z,9.80
2018-01-03T09:08:07.548Z,4.70
2018-01-03T09:09:07.566Z,7.50
2018-01-03T09:10:07.586Z,11.90
2018-01-03T09:11:07.601Z,8.50
2018-01-03T09:12:07.617Z,8.80
2018-01-03T09:13:07.636Z,9.20
2018-01-03T09:14:07.653Z,13.90
2018-01-03T09:15:07.672Z,11.80
2018-01-03T09:16:07.687Z,11.50
2018-01-03T09:17:07.707Z,12.10
2018-01-03T09:18:07.723Z,12.60
2018-01-03T09:19:07.747Z,8.70
2018-01-03T09:20:07.759Z,13.50
2018-01-03T09:21:07.777Z,10.30
2018-01-03T09:22:07.797Z,10.50
2018-01-03T09:23:07.811Z,8.30
2018-01-03T09:24:07.830Z,12.30
2018-01-03T09:25:07.895Z,11.70
2018-01-03T09:26:07.866Z,11.80
2018-01-03T09:27:07.886Z,10.50
2018-01-03T09:28:07.921Z,17.20
2018-01-03T09:29:08.005Z,14.80
2018-01-03T09:30:08.039Z,10.70
2018-01-03T09:31:08.133Z,14.50
2018-01-03T09:32:08.062Z,14.60
2018-01-03T09:33:08.089Z,13.70
2018-01-03T09:34:08.010Z,10.00
2018-01-03T09:35:08.095Z,7.80
2018-01-03T09:36:08.264Z,13.00
2018-01-03T09:37:08.121Z,12.80
2018-01-03T09:38:08.243Z,9.90
2018-01-03T09:39:08.096Z,12.70
2018-01-03T09:40:08.114Z,12.30
2018-01-03T09:41:08.132Z,14.60
2018-01-03T09:42:08.151Z,15.30
2018-01-03T09:43:08.169Z,10.90
2018-01-03T09:44:08.185Z,9.30
2018-01-03T09:45:08.204Z,10.30
2018-01-03T09:46:08.222Z,10.30
2018-01-03T09:47:08.240Z,12.50
2018-01-03T09:48:08.257Z,13.80
2018-01-03T09:49:08.279Z,13.50
2018-01-03T09:50:08.294Z,12.50
2018-01-03T09:51:08.313Z,11.80
2018-01-03T09:52:08.329Z,14.10
2018-01-03T09:53:08.350Z,14.30
2018-01-03T09:54:08.365Z,20.30
2018-01-03T09:55:08.384Z,18.00
2018-01-03T09:56:08.403Z,18.30
2018-01-03T09:57:08.420Z,20.00
2018-01-03T09:58:08.439Z,14.80
2018-01-03T09:59:08.462Z,15.80
2018-01-03T10:00:08.473Z,16.90
2018-01-03T10:01:08.492Z,13.00
2018-01-03T10:02:08.508Z,13.50
2018-01-03T10:03:08.527Z,14.30
2018-01-03T10:04:08.544Z,15.40
2018-01-03T10:05:08.562Z,14.80
2018-01-03T10:06:08.582Z,15.70
2018-01-03T10:07:08.600Z,19.00
2018-01-03T10:08:08.617Z,11.70
2018-01-03T10:09:08.636Z,16.00
2018-01-03T10:10:08.657Z,17.00
2018-01-03T10:11:08.675Z,14.00
2018-01-03T10:12:08.690Z,11.30
2018-01-03T10:13:08.717Z,17.90
2018-01-03T10:14:08.733Z,19.00
2018-01-03T10:15:08.754Z,23.30
2018-01-03T10:16:08.763Z,17.90
2018-01-03T10:17:08.781Z,18.80
2018-01-03T10:18:08.799Z,18.30
2018-01-03T10:19:08.816Z,17.00
2018-01-03T10:20:08.835Z,17.50
2018-01-03T10:21:08.855Z,13.70
2018-01-03T10:22:08.871Z,14.50
2018-01-03T10:23:08.892Z,17.00
2018-01-03T10:24:08.912Z,18.30
2018-01-03T10:25:08.926Z,13.10
2018-01-03T10:26:08.946Z,15.90
2018-01-03T10:27:08.963Z,16.80
2018-01-03T10:28:08.982Z,15.00
2018-01-03T10:29:09.000Z,16.80
2018-01-03T10:30:09.018Z,17.90
2018-01-03T10:31:09.037Z,11.60
2018-01-03T10:32:09.055Z,16.50
2018-01-03T10:33:09.078Z,17.70
2018-01-03T10:34:09.096Z,13.60
2018-01-03T10:35:09.110Z,14.30
2018-01-03T10:36:09.129Z,18.80
2018-01-03T10:37:09.146Z,11.30
2018-01-03T10:38:09.165Z,13.60
2018-01-03T10:39:09.183Z,18.10
2018-01-03T10:40:09.201Z,15.20
2018-01-03T10:41:09.219Z,16.50
2018-01-03T10:42:09.238Z,14.50
2018-01-03T10:43:09.261Z,15.30
2018-01-03T10:44:09.274Z,9.60
2018-01-03T10:45:09.293Z,15.90
2018-01-03T10:46:09.311Z,10.50
2018-01-03T10:47:09.330Z,15.20
2018-01-03T10:48:09.347Z,11.30
2018-01-03T10:49:09.365Z,14.10
2018-01-03T10:50:09.386Z,11.20
2018-01-03T10:51:09.405Z,13.40
2018-01-03T10:52:09.421Z,16.10
2018-01-03T10:53:09.439Z,10.40
2018-01-03T10:54:09.458Z,13.30
2018-01-03T10:55:09.476Z,12.80
2018-01-03T10:56:09.493Z,17.20
2018-01-03T10:57:09.513Z,11.20
2018-01-03T10:58:09.530Z,12.30
2018-01-03T10:59:09.550Z,19.20
2018-01-03T11:00:09.567Z,17.90
2018-01-03T11:01:09.584Z,15.30
2018-01-03T11:02:09.604Z,19.70
2018-01-03T11:03:09.622Z,15.00
2018-01-03T11:04:09.638Z,21.10
2018-01-03T11:05:09.657Z,16.30
2018-01-03T11:06:09.676Z,17.10
2018-01-03T11:07:09.694Z,13.70
2018-01-03T11:08:09.711Z,16.70
2018-01-03T11:09:09.730Z,18.60
2018-01-03T11:10:09.748Z,15.70
2018-01-03T11:11:09.766Z,15.50
2018-01-03T11:12:09.783Z,14.60
2018-01-03T11:13:09.801Z,17.40
2018-01-03T11:14:09.821Z,12.40
2018-01-03T11:15:09.837Z,13.50
2018-01-03T11:16:09.854Z,18.00
2018-01-03T11:17:09.872Z,15.70
2018-01-03T11:18:09.890Z,13.90
2018-01-03T11:19:09.908Z,14.20
2018-01-03T11:20:09.928Z,13.00
2018-01-03T11:21:09.943Z,14.50
2018-01-03T11:22:09.962Z,14.10
2018-01-03T11:23:09.980Z,12.30
2018-01-03T11:24:09.996Z,14.90
2018-01-03T11:25:10.015Z,16.70
2018-01-03T11:26:10.032Z,10.20
2018-01-03T11:27:10.050Z,13.80
2018-01-03T11:28:10.067Z,12.80
2018-01-03T11:29:10.085Z,11.00
2018-01-03T11:30:10.107Z,13.00
2018-01-03T11:31:10.123Z,15.30
2018-01-03T11:32:10.136Z,9.70
2018-01-03T11:33:10.155Z,10.20
2018-01-03T11:34:10.171Z,16.60
2018-01-03T11:35:10.190Z,15.50
2018-01-03T11:36:10.207Z,16.40
2018-01-03T11:37:10.223Z,11.10
2018-01-03T11:38:10.242Z,10.50
2018-01-03T11:39:10.258Z,13.00
2018-01-03T11:40:10.476Z,13.30
2018-01-03T11:41:10.293Z,8.90
2018-01-03T11:42:10.311Z,8.10
2018-01-03T11:43:10.329Z,12.60
2018-01-03T11:44:10.345Z,12.10
2018-01-03T11:45:10.361Z,11.70
2018-01-03T11:46:10.381Z,10.40
2018-01-03T11:47:10.398Z,12.00
2018-01-03T11:48:10.415Z,14.70
2018-01-03T11:49:10.433Z,9.80
2018-01-03T11:50:10.450Z,10.40
2018-01-03T11:51:10.468Z,6.80
2018-01-03T11:52:10.483Z,9.60
2018-01-03T11:53:10.505Z,14.40
2018-01-03T11:54:10.519Z,11.50
2018-01-03T11:55:10.535Z,8.80
2018-01-03T11:56:10.553Z,10.50
2018-01-03T11:57:10.573Z,7.00
2018-01-03T11:58:10.586Z,7.30
2018-01-03T11:59:10.605Z,9.50
2018-01-03T12:00:10.622Z,10.00
2018-01-03T12:01:10.638Z,12.90
2018-01-03T12:02:10.655Z,9.50
2018-01-03T12:03:10.678Z,13.40
2018-01-03T12:04:10.689Z,11.60
2018-01-03T12:05:10.708Z,12.20
2018-01-03T12:06:10.725Z,16.00
2018-01-03T12:07:10.743Z,14.10
2018-01-03T12:08:10.759Z,14.60
2018-01-03T12:09:10.776Z,15.90
2018-01-03T12:10:10.794Z,17.40
2018-01-03T12:11:10.812Z,11.60
2018-01-03T12:12:10.828Z,8.80
2018-01-03T12:13:10.846Z,13.20
2018-01-03T12:14:10.862Z,14.40
2018-01-03T12:15:10.880Z,9.10
2018-01-03T12:16:10.897Z,13.40
2018-01-03T12:17:10.917Z,13.30
2018-01-03T12:18:10.931Z,14.20
2018-01-03T12:19:10.950Z,12.30
2018-01-03T12:20:10.965Z,10.50
2018-01-03T12:21:10.981Z,10.70
2018-01-03T12:22:10.999Z,10.40
2018-01-03T12:23:11.016Z,8.60
2018-01-03T12:24:11.032Z,10.40
2018-01-03T12:25:11.051Z,8.90
2018-01-03T12:26:11.072Z,8.60
2018-01-03T12:27:11.085Z,27.50
2018-01-03T12:28:11.101Z,14.30
2018-01-03T12:29:11.119Z,11.40
2018-01-03T12:30:11.136Z,9.80
2018-01-03T12:31:11.153Z,11.60
2018-01-03T12:32:11.170Z,11.90
2018-01-03T12:33:11.187Z,11.00
2018-01-03T12:34:11.206Z,10.50
2018-01-03T12:35:11.473Z,10.80
2018-01-03T12:36:11.238Z,7.60
2018-01-03T12:37:11.256Z,15.40
2018-01-03T12:38:11.273Z,8.50
2018-01-03T12:39:11.292Z,10.80
2018-01-03T12:40:11.307Z,10.60
2018-01-03T12:41:11.324Z,13.30
2018-01-03T12:42:11.341Z,35.90
2018-01-03T12:43:11.361Z,13.20
2018-01-03T12:44:11.375Z,14.50
2018-01-03T12:45:11.393Z,9.80
2018-01-03T12:46:11.411Z,13.60
2018-01-03T12:47:11.428Z,14.10
2018-01-03T12:48:11.445Z,11.30
2018-01-03T12:49:11.462Z,14.70
2018-01-03T12:50:11.479Z,10.60
2018-01-03T12:51:11.503Z,10.60
2018-01-03T12:52:11.514Z,11.20
2018-01-03T12:53:11.532Z,13.70
2018-01-03T12:54:11.549Z,8.60
2018-01-03T12:55:11.566Z,12.30
2018-01-03T12:56:11.583Z,10.80
2018-01-03T12:57:11.600Z,11.60
2018-01-03T12:58:11.618Z,11.50
2018-01-03T12:59:11.637Z,10.80
2018-01-03T13:00:11.651Z,10.90
2018-01-03T13:01:11.696Z,9.00
2018-01-03T13:02:11.686Z,12.90
2018-01-03T13:03:11.705Z,12.80
2018-01-03T13:04:11.721Z,10.40
2018-01-03T13:05:11.737Z,16.00
2018-01-03T13:06:11.756Z,13.70
2018-01-03T13:07:11.773Z,12.60
2018-01-03T13:08:11.790Z,15.20
2018-01-03T13:09:11.806Z,13.10